Impacts TAF Board INFO
FOR SITUATIONAL AWARENESS. NOT TO BE USED FOR FLIGHT PLANNING PURPOSES.
IDs:

KPHL - Philadelphia Intl, PA, US

Issued at 1019 UTC 18 Aug 2017
Updated at 1056 UTC 18 Aug 2017
Potential Impact None Slight Moderate High
Time1041Z 18/11Z 18/12Z 18/13Z 18/14Z 18/15Z 18/16Z 18/17Z 18/18Z 18/19Z 18/20Z 18/21Z 18/22Z 18/23Z>>
Type OBS PRVL
  [TEMP]  
PRVL
  [TEMP]  
PRVL
  [TEMP]  
PRVL PRVL PRVL PRVL PRVL PRVL PRVL PRVL PRVL PRVL
VIS 10 >6
  [5]  
>6
  [5]  
>6
  [5]  
>6 >6 >6 >6 >6 >6 >6 >6 >6 5
CIG 17 15
  [15]  
15
  [15]  
15
  [15]  
15 15 30 30 80 80 80 80 80 50
Cover OVC OVC
  [OVC]  
OVC
  [OVC]  
OVC
  [OVC]  
OVC OVC BKN BKN BKN BKN BKN BKN BKN BKN
FltCat MVFR MVFR
  [MVFR]  
MVFR
  [MVFR]  
MVFR
  [MVFR]  
MVFR MVFR MVFR MVFR VFR VFR VFR VFR VFR MVFR
WX -- --
  [-SHRA]  
--
  [-SHRA]  
--
  [-SHRA]  
-- -- -- -- -- -- -- -- -- -SHRA VCTS
WDir 190 190
[190]
190
[190]
190
[190]
190 190 190 190 200 200 200 200 200 200
WSpd 7 7
  [7]  
7
  [7]  
7
  [7]  
7 7 8 8 10 10 10 10 10 11
WGst -- --
  [--]  
--
  [--]  
--
  [--]  
-- -- -- -- -- -- -- -- -- --

Raw TAF
KPHL 181019Z 1810/1912 19007KT P6SM OVC015
  TEMPO 1810/1814 5SM -SHRA
  FM181600 19008KT P6SM SCT015 BKN030
  FM181800 20010KT P6SM FEW030 BKN080
  FM182300 20011KT 5SM -SHRA VCTS SCT025CB BKN050
  PROB30 1900/1903 2SM TSRA BKN025CB
  FM190400 22006KT P6SM SCT030 OVC080
  FM191000 26005KT P6SM FEW050 SCT250


Raw METAR
KPHL 181041Z 19007KT 10SM FEW012 OVC017 24/22 A2988 RMK AO2 RAB25E37 P0008 T02440222 $
KPHL 181038Z 19006KT 8SM SCT013 OVC019 24/22 A2988 RMK AO2 RAB25E37 P0008 T02440222 $
KPHL 181030Z 19007KT 6SM -RA BR SCT013 OVC019 24/22 A2988 RMK AO2 RAB25 SCT V BKN P0007 T02440222 $
KPHL 181026Z 19007KT 7SM -RA BKN013 OVC020 24/22 A2988 RMK AO2 RAB25 CIG 012V016 P0000 T02440217 $
KPHL 181006Z 19006KT 10SM BKN014 OVC022 24/22 A2988 RMK AO2 CIG 012V016 T02440217 $
KPHL 180954Z 19006KT 10SM SCT015 BKN022 OVC050 24/21 A2988 RMK AO2 SLP117 T02440211 $
KPHL 180926Z 18007KT 10SM BKN022 BKN034 OVC130 24/21 A2987 RMK AO2 BKN022 V SCT T02440211 $
KPHL 180854Z 21005KT 10SM BKN033 OVC110 24/21 A2988 RMK AO2 SLP118 T02440206 58014 $
KPHL 180754Z 19007KT 10SM SCT032 SCT044 OVC110 24/21 A2989 RMK AO2 SLP122 T02440206 $

METAR Board
Radar Display
Forecast Discussion

FOR SITUATIONAL AWARENESS. NOT TO BE USED FOR FLIGHT PLANNING PURPOSES.